createdAt,value
2023-05-05T00:00:05.839Z,5.60
2023-05-05T00:01:05.757Z,5.38
2023-05-05T00:02:05.792Z,5.40
2023-05-05T00:03:05.863Z,5.00
2023-05-05T00:04:05.969Z,5.49
2023-05-05T00:05:05.962Z,5.35
2023-05-05T00:06:05.995Z,4.98
2023-05-05T00:07:06.029Z,3.97
2023-05-05T00:08:06.078Z,4.76
2023-05-05T00:09:06.111Z,4.50
2023-05-05T00:10:06.247Z,4.78
2023-05-05T00:11:06.222Z,4.65
2023-05-05T00:12:06.241Z,5.09
2023-05-05T00:13:06.331Z,6.03
2023-05-05T00:14:06.369Z,5.42
2023-05-05T00:15:06.301Z,5.00
2023-05-05T00:16:06.317Z,5.70
2023-05-05T00:17:06.421Z,5.47
2023-05-05T00:18:06.401Z,5.97
2023-05-05T00:19:06.365Z,5.31
2023-05-05T00:20:06.758Z,5.59
2023-05-05T00:21:06.382Z,5.33
2023-05-05T00:22:06.384Z,5.52
2023-05-05T00:23:06.394Z,6.24
2023-05-05T00:24:06.454Z,5.55
2023-05-05T00:25:06.431Z,5.24
2023-05-05T00:26:06.469Z,6.43
2023-05-05T00:27:06.457Z,5.04
2023-05-05T00:28:06.424Z,5.80
2023-05-05T00:29:06.437Z,6.41
2023-05-05T00:30:06.661Z,5.66
2023-05-05T00:31:06.534Z,6.21
2023-05-05T00:32:06.525Z,5.86
2023-05-05T00:33:06.642Z,5.69
2023-05-05T00:34:06.631Z,6.19
2023-05-05T00:35:06.656Z,6.11
2023-05-05T00:36:06.701Z,6.64
2023-05-05T00:37:06.719Z,6.29
2023-05-05T00:38:06.757Z,5.53
2023-05-05T00:39:06.850Z,6.40
2023-05-05T00:40:07.136Z,6.00
2023-05-05T00:41:06.906Z,6.02
2023-05-05T00:42:06.926Z,5.59
2023-05-05T00:43:06.944Z,5.31
2023-05-05T00:44:06.997Z,6.60
2023-05-05T00:45:07.043Z,6.36
2023-05-05T00:46:07.086Z,5.91
2023-05-05T00:47:07.095Z,5.99
2023-05-05T00:48:07.200Z,5.85
2023-05-05T00:49:07.254Z,6.10
2023-05-05T00:50:07.417Z,5.90
2023-05-05T00:51:07.252Z,5.44
2023-05-05T00:52:07.358Z,5.23
2023-05-05T00:53:07.393Z,6.25
2023-05-05T00:54:07.398Z,5.83
2023-05-05T00:55:07.472Z,6.15
2023-05-05T00:56:07.520Z,6.16
2023-05-05T00:57:07.564Z,5.73
2023-05-05T00:58:07.602Z,6.96
2023-05-05T00:59:07.652Z,5.54
2023-05-05T01:00:07.882Z,6.14
2023-05-05T01:01:07.868Z,6.04
2023-05-05T01:02:07.851Z,6.38
2023-05-05T01:03:08.003Z,6.58
2023-05-05T01:04:08.052Z,6.40
2023-05-05T01:05:08.030Z,5.84
2023-05-05T01:06:08.134Z,6.22
2023-05-05T01:07:08.143Z,5.96
2023-05-05T01:08:08.208Z,6.11
2023-05-05T01:09:08.267Z,5.90
2023-05-05T01:10:18.802Z,5.95
2023-05-05T01:11:09.303Z,5.20
2023-05-05T01:12:08.276Z,5.22
2023-05-05T01:13:08.354Z,5.84
2023-05-05T01:14:08.257Z,5.78
2023-05-05T01:15:08.290Z,5.18
2023-05-05T01:16:08.350Z,5.61
2023-05-05T01:17:08.227Z,6.00
2023-05-05T01:18:08.281Z,5.07
2023-05-05T01:19:08.312Z,5.03
2023-05-05T01:20:08.580Z,5.59
2023-05-05T01:21:08.463Z,6.09
2023-05-05T01:22:08.426Z,5.78
2023-05-05T01:23:08.531Z,5.27
2023-05-05T01:24:08.603Z,5.11
2023-05-05T01:25:08.612Z,6.52
2023-05-05T01:26:08.691Z,5.38
2023-05-05T01:27:08.767Z,5.09
2023-05-05T01:28:08.762Z,4.94
2023-05-05T01:29:08.768Z,5.59
2023-05-05T01:30:08.931Z,5.97
2023-05-05T01:31:08.817Z,5.28
2023-05-05T01:32:08.795Z,5.73
2023-05-05T01:33:08.791Z,5.73
2023-05-05T01:34:08.833Z,5.89
2023-05-05T01:35:08.818Z,5.21
2023-05-05T01:36:08.878Z,5.72
2023-05-05T01:37:08.888Z,5.66
2023-05-05T01:38:08.885Z,5.73
2023-05-05T01:39:08.937Z,5.43
2023-05-05T01:40:09.057Z,6.16
2023-05-05T01:41:08.956Z,4.98
2023-05-05T01:42:09.008Z,5.54
2023-05-05T01:43:09.052Z,5.95
2023-05-05T01:44:09.074Z,5.94
2023-05-05T01:45:09.154Z,6.09
2023-05-05T01:46:09.272Z,5.80
2023-05-05T01:47:09.298Z,5.62
2023-05-05T01:48:09.313Z,5.69
2023-05-05T01:49:09.368Z,6.11
2023-05-05T01:50:09.718Z,5.30
2023-05-05T01:51:09.470Z,6.03
2023-05-05T01:52:09.543Z,6.24
2023-05-05T01:53:09.592Z,5.64
2023-05-05T01:54:09.670Z,6.63
2023-05-05T01:55:09.662Z,6.17
2023-05-05T01:56:09.777Z,6.19
2023-05-05T01:57:09.811Z,6.28
2023-05-05T01:58:09.864Z,5.85
2023-05-05T01:59:09.896Z,6.52
2023-05-05T02:00:10.194Z,6.19
2023-05-05T02:01:10.025Z,6.23
2023-05-05T02:02:11.011Z,5.89
2023-05-05T02:03:10.134Z,6.62
2023-05-05T02:04:10.116Z,5.88
2023-05-05T02:05:10.166Z,6.21
2023-05-05T02:06:10.270Z,5.37
2023-05-05T02:07:10.273Z,5.12
2023-05-05T02:08:10.290Z,5.57
2023-05-05T02:09:10.371Z,5.85
2023-05-05T02:10:10.549Z,6.33
2023-05-05T02:11:10.504Z,7.02
2023-05-05T02:12:10.567Z,6.66
2023-05-05T02:13:10.725Z,5.68
2023-05-05T02:14:10.651Z,6.43
2023-05-05T02:15:10.720Z,5.92
2023-05-05T02:16:10.875Z,6.29
2023-05-05T02:17:10.864Z,6.44
2023-05-05T02:18:10.898Z,5.94
2023-05-05T02:19:10.968Z,6.45
2023-05-05T02:20:11.013Z,6.18
2023-05-05T02:21:11.115Z,6.11
2023-05-05T02:22:11.172Z,6.78
2023-05-05T02:23:11.178Z,6.47
2023-05-05T02:24:11.250Z,5.88
2023-05-05T02:25:11.341Z,5.84
2023-05-05T02:26:11.382Z,5.58
2023-05-05T02:27:11.421Z,6.32
2023-05-05T02:28:11.503Z,6.59
2023-05-05T02:29:11.585Z,5.82
2023-05-05T02:30:11.634Z,5.99
2023-05-05T02:31:11.712Z,6.03
2023-05-05T02:32:11.756Z,5.72
2023-05-05T02:33:11.777Z,6.62
2023-05-05T02:34:11.823Z,5.55
2023-05-05T02:35:11.884Z,5.57
2023-05-05T02:36:11.921Z,5.76
2023-05-05T02:37:12.019Z,6.17
2023-05-05T02:38:12.056Z,6.95
2023-05-05T02:39:12.112Z,6.16
2023-05-05T02:40:12.154Z,6.55
2023-05-05T02:41:12.203Z,6.74
2023-05-05T02:42:12.172Z,6.29
2023-05-05T02:43:12.277Z,5.12
2023-05-05T02:44:12.253Z,6.23
2023-05-05T02:45:12.318Z,6.63
2023-05-05T02:46:12.373Z,6.25
2023-05-05T02:47:12.343Z,6.34
2023-05-05T02:48:12.387Z,6.24
2023-05-05T02:49:12.431Z,6.97
2023-05-05T02:50:13.414Z,5.90
2023-05-05T02:51:12.542Z,6.11
2023-05-05T02:52:12.663Z,6.31
2023-05-05T02:53:12.682Z,6.60
2023-05-05T02:54:12.736Z,7.15
2023-05-05T02:55:12.734Z,6.49
2023-05-05T02:56:12.810Z,6.14
2023-05-05T02:57:12.867Z,6.52
2023-05-05T02:58:12.902Z,6.41
2023-05-05T02:59:15.878Z,5.86
2023-05-05T03:00:12.955Z,5.96
2023-05-05T03:01:12.974Z,6.24
2023-05-05T03:02:12.947Z,6.41
2023-05-05T03:03:12.989Z,5.75
2023-05-05T03:04:12.891Z,5.86
2023-05-05T03:05:12.922Z,5.97
2023-05-05T03:06:12.878Z,6.05
2023-05-05T03:07:12.944Z,5.78
2023-05-05T03:08:12.865Z,6.38
2023-05-05T03:09:12.877Z,6.19
2023-05-05T03:10:12.882Z,7.48
2023-05-05T03:11:12.852Z,6.58
2023-05-05T03:12:12.850Z,5.71
2023-05-05T03:13:12.938Z,5.80
2023-05-05T03:14:12.820Z,6.02
2023-05-05T03:15:12.815Z,5.63
2023-05-05T03:16:12.807Z,6.42
2023-05-05T03:17:12.800Z,6.07
2023-05-05T03:18:12.817Z,5.76
2023-05-05T03:19:12.804Z,5.78
2023-05-05T03:20:12.759Z,6.02
2023-05-05T03:21:12.790Z,5.81
2023-05-05T03:22:12.749Z,5.69
2023-05-05T03:23:12.728Z,6.45
2023-05-05T03:24:12.732Z,5.92
2023-05-05T03:25:12.751Z,5.40
2023-05-05T03:26:12.735Z,6.56
2023-05-05T03:27:12.754Z,5.96
2023-05-05T03:28:12.704Z,6.10
2023-05-05T03:29:12.715Z,5.69
2023-05-05T03:30:12.723Z,6.27
2023-05-05T03:31:12.743Z,6.62
2023-05-05T03:32:12.796Z,6.27
2023-05-05T03:33:12.708Z,6.29
2023-05-05T03:34:12.705Z,6.53
2023-05-05T03:35:12.716Z,6.44
2023-05-05T03:36:12.696Z,6.30
2023-05-05T03:37:12.655Z,6.50
2023-05-05T03:38:12.667Z,6.22
2023-05-05T03:39:12.677Z,6.64
2023-05-05T03:40:12.654Z,6.06
2023-05-05T03:41:12.643Z,6.16
2023-05-05T03:42:12.658Z,6.66
2023-05-05T03:43:12.603Z,6.61
2023-05-05T03:44:12.596Z,5.89
2023-05-05T03:45:12.606Z,5.57
2023-05-05T03:46:12.621Z,6.00
2023-05-05T03:47:12.578Z,6.60
2023-05-05T03:48:12.596Z,6.83
2023-05-05T03:49:12.605Z,6.79
2023-05-05T03:50:12.552Z,6.21
2023-05-05T03:51:12.555Z,6.26
2023-05-05T03:52:14.514Z,6.12
2023-05-05T03:53:12.732Z,6.18
2023-05-05T03:54:12.731Z,5.93
2023-05-05T03:55:12.740Z,5.71
2023-05-05T03:56:12.758Z,6.45
2023-05-05T03:57:12.770Z,5.69
2023-05-05T03:58:12.753Z,6.23
2023-05-05T03:59:12.771Z,6.52
2023-05-05T04:00:12.774Z,6.78
2023-05-05T04:01:12.782Z,6.62
2023-05-05T04:02:12.830Z,5.96
2023-05-05T04:03:12.890Z,7.02
2023-05-05T04:04:12.905Z,5.98
2023-05-05T04:05:12.774Z,5.92
2023-05-05T04:06:12.759Z,6.21
2023-05-05T04:07:12.761Z,6.71
2023-05-05T04:08:12.788Z,7.03
2023-05-05T04:09:12.736Z,6.60
2023-05-05T04:10:12.759Z,6.85
2023-05-05T04:11:12.750Z,5.83
2023-05-05T04:12:12.809Z,7.07
2023-05-05T04:13:12.908Z,7.93
2023-05-05T04:14:12.878Z,7.30
2023-05-05T04:15:12.889Z,7.42
2023-05-05T04:16:12.981Z,7.02
2023-05-05T04:17:12.969Z,6.98
2023-05-05T04:18:13.001Z,6.39
2023-05-05T04:19:13.032Z,6.88
2023-05-05T04:20:13.078Z,6.94
2023-05-05T04:21:13.072Z,6.17
2023-05-05T04:22:13.125Z,7.02
2023-05-05T04:23:13.150Z,6.56
2023-05-05T04:24:13.167Z,6.65
2023-05-05T04:25:13.210Z,6.42
2023-05-05T04:26:13.253Z,6.84
2023-05-05T04:27:13.264Z,6.18
2023-05-05T04:28:13.288Z,6.26
2023-05-05T04:29:13.290Z,6.68
2023-05-05T04:30:13.349Z,6.78
2023-05-05T04:31:13.424Z,6.24
2023-05-05T04:32:13.371Z,8.24
2023-05-05T04:33:13.421Z,6.80
2023-05-05T04:34:13.428Z,6.69
2023-05-05T04:35:13.466Z,7.33
2023-05-05T04:36:13.488Z,7.02
2023-05-05T04:37:13.564Z,6.46
2023-05-05T04:38:13.563Z,7.40
2023-05-05T04:39:13.553Z,7.24
2023-05-05T04:40:13.570Z,7.39
2023-05-05T04:41:13.569Z,6.64
2023-05-05T04:42:13.586Z,6.82
2023-05-05T04:43:13.578Z,7.67
2023-05-05T04:44:13.606Z,6.54
2023-05-05T04:45:13.597Z,6.81
2023-05-05T04:46:13.623Z,6.87
2023-05-05T04:47:14.837Z,6.72
2023-05-05T04:48:13.728Z,6.97
2023-05-05T04:49:13.735Z,6.88
2023-05-05T04:50:13.768Z,6.95
2023-05-05T04:51:13.764Z,6.99
2023-05-05T04:52:13.797Z,6.69
2023-05-05T04:53:13.802Z,7.78
2023-05-05T04:54:13.881Z,6.66
2023-05-05T04:55:13.874Z,6.82
2023-05-05T04:56:13.894Z,6.88
2023-05-05T04:57:13.911Z,6.81
2023-05-05T04:58:13.953Z,7.09
2023-05-05T04:59:13.940Z,6.36
2023-05-05T05:00:14.016Z,7.68
2023-05-05T05:02:33.612Z,7.11
2023-05-05T05:03:33.713Z,7.08
2023-05-05T05:04:33.555Z,7.02
2023-05-05T05:05:33.472Z,7.45
2023-05-05T05:06:33.546Z,7.69
2023-05-05T05:07:33.474Z,7.10
2023-05-05T05:08:33.439Z,7.84
2023-05-05T05:09:33.438Z,7.22
2023-05-05T05:10:33.438Z,7.68
2023-05-05T05:11:33.452Z,6.64
2023-05-05T05:12:33.450Z,7.90
2023-05-05T05:13:33.419Z,7.65
2023-05-05T05:14:33.431Z,7.71
2023-05-05T05:15:33.423Z,7.67
2023-05-05T05:16:33.463Z,7.60
2023-05-05T05:17:33.468Z,7.46
2023-05-05T05:18:33.404Z,7.43
2023-05-05T05:19:33.402Z,7.63
2023-05-05T05:20:33.377Z,8.16
2023-05-05T05:21:33.380Z,7.98
2023-05-05T05:22:33.680Z,7.39
2023-05-05T05:23:33.333Z,7.61
2023-05-05T05:24:33.332Z,7.81
2023-05-05T05:25:33.492Z,7.49
2023-05-05T05:26:33.345Z,8.33
2023-05-05T05:27:33.337Z,7.93
2023-05-05T05:28:33.348Z,7.64
2023-05-05T05:29:33.316Z,8.17
2023-05-05T05:30:33.318Z,9.10
2023-05-05T05:31:33.322Z,8.46
2023-05-05T05:32:33.763Z,7.57
2023-05-05T05:33:33.282Z,8.86
2023-05-05T05:34:33.296Z,9.56
2023-05-05T05:35:33.249Z,8.52
2023-05-05T05:36:33.320Z,8.36
2023-05-05T05:37:33.756Z,9.70
2023-05-05T05:38:33.342Z,9.07
2023-05-05T05:39:33.236Z,9.59
2023-05-05T05:40:33.254Z,8.74
2023-05-05T05:41:33.235Z,7.92
2023-05-05T05:42:33.203Z,8.01
2023-05-05T05:43:33.237Z,7.78
2023-05-05T05:44:33.246Z,6.83
2023-05-05T05:45:33.154Z,8.49
2023-05-05T05:47:53.879Z,8.89
2023-05-05T05:48:53.095Z,8.22
2023-05-05T05:49:52.953Z,8.15
2023-05-05T05:50:52.985Z,7.37
2023-05-05T05:51:52.996Z,7.76
2023-05-05T05:52:53.838Z,7.16
2023-05-05T05:53:52.913Z,7.87
2023-05-05T05:54:52.930Z,8.24
2023-05-05T05:55:53.976Z,7.33
2023-05-05T05:56:52.921Z,7.44
2023-05-05T05:57:53.336Z,7.41
2023-05-05T05:58:52.977Z,7.36
2023-05-05T05:59:52.967Z,6.95
2023-05-05T06:00:52.930Z,6.94
2023-05-05T06:01:53.035Z,7.49
2023-05-05T06:02:52.995Z,7.43
2023-05-05T06:03:52.973Z,6.77
2023-05-05T06:04:52.953Z,6.93
2023-05-05T06:05:52.863Z,6.86
2023-05-05T06:06:52.882Z,6.79
2023-05-05T06:07:53.323Z,7.24
2023-05-05T06:08:52.810Z,7.75
2023-05-05T06:09:52.823Z,6.56
2023-05-05T06:10:52.890Z,7.15
2023-05-05T06:11:52.819Z,7.08
2023-05-05T06:12:52.927Z,5.90
2023-05-05T06:13:52.836Z,5.85
2023-05-05T06:14:52.838Z,6.69
2023-05-05T06:15:52.851Z,5.66
2023-05-05T06:16:52.832Z,6.43
2023-05-05T06:17:52.863Z,6.67
2023-05-05T06:18:52.765Z,7.40
2023-05-05T06:19:54.463Z,5.88
2023-05-05T06:20:52.749Z,6.87
2023-05-05T06:21:52.761Z,6.65
2023-05-05T06:22:52.770Z,5.62
2023-05-05T06:23:52.780Z,5.80
2023-05-05T06:24:52.714Z,5.04
2023-05-05T06:25:52.792Z,6.71
2023-05-05T06:26:52.794Z,6.06
2023-05-05T06:27:52.903Z,5.97
2023-05-05T06:28:52.812Z,5.59
2023-05-05T06:29:52.844Z,5.99
2023-05-05T06:30:52.855Z,5.25
2023-05-05T06:31:53.035Z,5.84
2023-05-05T06:32:52.846Z,5.84
2023-05-05T06:33:52.918Z,5.67
2023-05-05T06:34:52.857Z,6.62
2023-05-05T06:35:52.870Z,5.93
2023-05-05T06:36:52.892Z,6.46
2023-05-05T06:37:53.375Z,6.00
2023-05-05T06:38:53.904Z,6.34
2023-05-05T06:39:53.715Z,5.84
2023-05-05T06:40:52.937Z,5.39
2023-05-05T06:41:53.009Z,5.59
2023-05-05T06:42:53.101Z,5.92
2023-05-05T06:43:53.099Z,5.75
2023-05-05T06:44:53.153Z,5.13
2023-05-05T06:45:53.262Z,5.75
2023-05-05T06:46:53.879Z,5.25
2023-05-05T06:47:53.503Z,4.74
2023-05-05T06:48:53.292Z,4.91
2023-05-05T06:49:53.403Z,5.30
2023-05-05T06:50:53.501Z,4.81
2023-05-05T06:51:53.387Z,5.21
2023-05-05T06:52:53.903Z,4.45
2023-05-05T06:53:53.532Z,4.85
2023-05-05T06:54:53.495Z,4.93
2023-05-05T06:55:53.503Z,4.24
2023-05-05T06:56:53.883Z,4.49
2023-05-05T06:57:53.656Z,4.61
2023-05-05T06:58:53.538Z,4.41
2023-05-05T06:59:53.531Z,4.13
2023-05-05T07:00:53.587Z,4.18
2023-05-05T07:01:53.862Z,4.03
2023-05-05T07:02:53.986Z,3.63
2023-05-05T07:03:53.715Z,4.16
2023-05-05T07:04:53.681Z,3.68
2023-05-05T07:05:53.691Z,3.91
2023-05-05T07:06:53.665Z,4.44
2023-05-05T07:07:53.675Z,3.64
2023-05-05T07:08:53.666Z,4.19
2023-05-05T07:09:53.710Z,4.14
2023-05-05T07:10:53.852Z,3.99
2023-05-05T07:11:53.829Z,4.02
2023-05-05T07:12:53.960Z,4.07
2023-05-05T07:13:53.878Z,3.82
2023-05-05T07:14:53.945Z,3.45
2023-05-05T07:15:54.002Z,3.43
2023-05-05T07:16:54.054Z,3.53
2023-05-05T07:17:54.214Z,3.94
2023-05-05T07:18:54.141Z,4.27
2023-05-05T07:19:54.193Z,4.04
2023-05-05T07:20:54.498Z,5.88
2023-05-05T07:21:54.226Z,3.66
2023-05-05T07:22:54.308Z,4.13
2023-05-05T07:23:54.340Z,3.74
2023-05-05T07:24:54.352Z,3.59
2023-05-05T07:25:54.457Z,3.53
2023-05-05T07:26:54.974Z,3.12
2023-05-05T07:27:54.897Z,3.00
2023-05-05T07:28:54.454Z,3.66
2023-05-05T07:29:54.450Z,3.60
2023-05-05T07:30:54.471Z,3.37
2023-05-05T07:31:54.495Z,3.31
2023-05-05T07:32:54.505Z,3.21
2023-05-05T07:33:54.491Z,3.89
2023-05-05T07:34:54.489Z,3.54
2023-05-05T07:35:54.509Z,3.73
2023-05-05T07:36:54.615Z,3.35
2023-05-05T07:37:54.641Z,3.43
2023-05-05T07:38:54.747Z,4.58
2023-05-05T07:39:54.792Z,3.06
2023-05-05T07:40:54.811Z,2.94
2023-05-05T07:41:54.842Z,3.21
2023-05-05T07:42:55.437Z,3.76
2023-05-05T07:43:54.972Z,2.87
2023-05-05T07:44:55.085Z,2.96
2023-05-05T07:45:55.099Z,2.85
2023-05-05T07:46:55.146Z,3.06
2023-05-05T07:47:55.144Z,3.28
2023-05-05T07:48:55.191Z,3.27
2023-05-05T07:49:55.334Z,2.65
2023-05-05T07:50:55.241Z,3.13
2023-05-05T07:51:55.316Z,2.93
2023-05-05T07:53:02.397Z,3.02
2023-05-05T07:53:56.646Z,2.89
2023-05-05T07:54:55.310Z,2.51
2023-05-05T07:55:55.257Z,2.68
2023-05-05T07:56:55.276Z,2.66
2023-05-05T07:57:55.329Z,3.08
2023-05-05T07:58:55.246Z,2.85
2023-05-05T07:59:55.267Z,3.11
2023-05-05T08:00:55.226Z,3.01
2023-05-05T08:01:55.277Z,2.78
2023-05-05T08:02:55.470Z,3.43
2023-05-05T08:03:55.317Z,3.19
2023-05-05T08:04:55.301Z,3.41
2023-05-05T08:05:55.353Z,3.08
2023-05-05T08:06:55.446Z,3.75
2023-05-05T08:07:55.431Z,2.76
2023-05-05T08:08:55.459Z,3.11
2023-05-05T08:09:55.460Z,2.27
2023-05-05T08:10:55.562Z,3.29
2023-05-05T08:11:55.636Z,2.43
2023-05-05T08:12:55.656Z,2.92
2023-05-05T08:13:55.594Z,3.63
2023-05-05T08:14:55.623Z,3.26
2023-05-05T08:15:55.724Z,3.07
2023-05-05T08:16:55.687Z,2.58
2023-05-05T08:17:55.812Z,3.14
2023-05-05T08:18:55.774Z,2.58
2023-05-05T08:19:55.853Z,2.97
2023-05-05T08:20:55.934Z,3.33
2023-05-05T08:21:56.068Z,3.36
2023-05-05T08:22:56.161Z,2.97
2023-05-05T08:23:56.122Z,2.94
2023-05-05T08:24:56.161Z,2.75
2023-05-05T08:25:56.270Z,2.65
2023-05-05T08:26:56.257Z,3.20
2023-05-05T08:27:56.306Z,2.79
2023-05-05T08:28:56.277Z,2.51
2023-05-05T08:29:56.386Z,2.32
2023-05-05T08:30:56.385Z,3.21
2023-05-05T08:31:56.418Z,2.95
2023-05-05T08:32:56.630Z,3.07
2023-05-05T08:33:56.354Z,2.61
2023-05-05T08:34:56.433Z,3.04
2023-05-05T08:35:56.360Z,2.49
2023-05-05T08:36:56.367Z,2.62
2023-05-05T08:37:58.676Z,2.73
2023-05-05T08:38:56.437Z,2.68
2023-05-05T08:39:56.371Z,2.80
2023-05-05T08:40:56.503Z,2.96
2023-05-05T08:41:56.373Z,2.94
2023-05-05T08:42:56.386Z,2.68
2023-05-05T08:43:56.412Z,2.51
2023-05-05T08:44:58.350Z,2.84
2023-05-05T08:45:56.415Z,3.11
2023-05-05T08:46:56.379Z,2.28
2023-05-05T08:47:56.539Z,2.60
2023-05-05T08:48:56.335Z,3.01
2023-05-05T08:49:56.348Z,2.45
2023-05-05T08:50:57.305Z,3.05
2023-05-05T08:51:56.462Z,3.06
2023-05-05T08:52:56.977Z,2.31
2023-05-05T08:53:56.450Z,2.74
2023-05-05T08:54:56.591Z,3.22
2023-05-05T08:55:56.525Z,2.73
2023-05-05T08:56:56.581Z,3.14
2023-05-05T08:57:56.955Z,2.84
2023-05-05T08:58:56.696Z,2.68
2023-05-05T08:59:56.723Z,3.06
2023-05-05T09:00:56.886Z,2.92
2023-05-05T09:01:56.849Z,2.68
2023-05-05T09:02:57.127Z,3.00
2023-05-05T09:03:56.815Z,2.49
2023-05-05T09:04:56.833Z,3.08
2023-05-05T09:05:56.858Z,2.94
2023-05-05T09:06:56.877Z,2.91
2023-05-05T09:07:56.896Z,2.93
2023-05-05T09:08:59.493Z,2.85
2023-05-05T09:09:56.849Z,3.15
2023-05-05T09:10:56.914Z,3.38
2023-05-05T09:11:56.828Z,2.89
2023-05-05T09:12:56.878Z,2.53
2023-05-05T09:13:56.908Z,2.67
2023-05-05T09:14:58.931Z,2.86
2023-05-05T09:15:57.137Z,2.92
2023-05-05T09:16:57.015Z,3.42
2023-05-05T09:17:57.170Z,3.47
2023-05-05T09:18:57.424Z,3.04
2023-05-05T09:19:57.170Z,2.86
2023-05-05T09:20:59.498Z,2.74
2023-05-05T09:21:57.407Z,2.82
2023-05-05T09:22:58.948Z,2.87
2023-05-05T09:24:00.305Z,2.24
2023-05-05T09:24:58.461Z,2.40
2023-05-05T09:25:57.403Z,2.76
2023-05-05T09:26:59.073Z,2.37
2023-05-05T09:27:57.313Z,2.96
2023-05-05T09:28:57.328Z,2.50
2023-05-05T09:29:57.282Z,2.61
2023-05-05T09:30:57.385Z,2.65
2023-05-05T09:31:57.367Z,2.64
2023-05-05T09:32:57.384Z,3.01
2023-05-05T09:33:57.460Z,2.90
2023-05-05T09:34:57.445Z,2.59
2023-05-05T09:35:57.494Z,2.68
2023-05-05T09:36:57.507Z,2.53
2023-05-05T09:37:57.542Z,2.38
2023-05-05T09:38:58.813Z,3.57
2023-05-05T09:39:57.617Z,2.94
2023-05-05T09:40:57.609Z,3.01
2023-05-05T09:41:57.573Z,2.67
2023-05-05T09:42:57.629Z,3.17
2023-05-05T09:43:57.919Z,3.13
2023-05-05T09:44:59.768Z,2.67
2023-05-05T09:45:57.720Z,2.69
2023-05-05T09:46:57.789Z,3.20
2023-05-05T09:48:00.206Z,3.15
2023-05-05T09:48:57.939Z,3.18
2023-05-05T09:49:57.796Z,2.79
2023-05-05T09:50:57.777Z,3.11
2023-05-05T09:51:57.772Z,2.70
2023-05-05T09:52:57.739Z,3.22
2023-05-05T09:53:57.880Z,2.71
2023-05-05T09:54:57.732Z,2.96
2023-05-05T09:55:57.739Z,2.78
2023-05-05T09:56:57.790Z,2.57
2023-05-05T09:57:57.757Z,3.30
2023-05-05T09:58:58.751Z,3.37
2023-05-05T09:59:57.726Z,4.14
2023-05-05T10:00:57.694Z,3.29
2023-05-05T10:01:57.777Z,3.07
2023-05-05T10:02:57.715Z,3.50
2023-05-05T10:03:57.696Z,3.25
2023-05-05T10:04:58.577Z,3.21
2023-05-05T10:05:57.687Z,3.08
2023-05-05T10:06:57.668Z,2.83
2023-05-05T10:07:57.685Z,3.54
2023-05-05T10:08:57.965Z,2.98
2023-05-05T10:09:57.702Z,3.38
2023-05-05T10:10:57.856Z,2.84
2023-05-05T10:11:57.728Z,3.18
2023-05-05T10:12:57.842Z,2.98
2023-05-05T10:13:57.857Z,3.44
2023-05-05T10:14:57.877Z,3.41
2023-05-05T10:15:58.046Z,2.96
2023-05-05T10:16:57.959Z,2.97
2023-05-05T10:18:06.761Z,2.72
2023-05-05T10:18:59.023Z,3.36
2023-05-05T10:19:57.970Z,2.92
2023-05-05T10:20:57.953Z,3.68
2023-05-05T10:21:57.897Z,2.88
2023-05-05T10:22:57.892Z,2.75
2023-05-05T10:23:57.934Z,3.25
2023-05-05T10:24:58.002Z,3.19
2023-05-05T10:25:57.904Z,2.94
2023-05-05T10:26:57.877Z,3.24
2023-05-05T10:27:57.891Z,3.14
2023-05-05T10:28:57.991Z,2.80
2023-05-05T10:29:57.977Z,2.57
2023-05-05T10:30:57.974Z,3.04
2023-05-05T10:31:58.028Z,3.41
2023-05-05T10:33:09.124Z,3.80
2023-05-05T10:33:59.220Z,3.92
2023-05-05T10:34:58.070Z,3.40
2023-05-05T10:35:58.076Z,4.20
2023-05-05T10:36:58.096Z,3.98
2023-05-05T10:37:58.138Z,3.72
2023-05-05T10:38:58.472Z,3.93
2023-05-05T10:39:58.038Z,3.40
2023-05-05T10:40:58.055Z,3.23
2023-05-05T10:41:57.997Z,3.73
2023-05-05T10:42:57.969Z,3.40
2023-05-05T10:43:58.407Z,3.46
2023-05-05T10:44:58.084Z,3.82
2023-05-05T10:45:58.322Z,3.07
2023-05-05T10:46:58.145Z,3.17
2023-05-05T10:47:58.206Z,2.80
2023-05-05T10:48:58.542Z,2.98
2023-05-05T10:49:58.265Z,3.28
2023-05-05T10:50:58.229Z,2.80
2023-05-05T10:51:58.239Z,3.32
2023-05-05T10:52:58.301Z,3.22
2023-05-05T10:53:58.412Z,2.77
2023-05-05T10:54:58.387Z,3.38
2023-05-05T10:55:58.503Z,3.43
2023-05-05T10:56:58.456Z,3.55
2023-05-05T10:57:58.510Z,3.86
2023-05-05T10:59:00.628Z,2.81
2023-05-05T10:59:58.622Z,3.22
2023-05-05T11:00:58.685Z,3.42
2023-05-05T11:01:58.666Z,3.23
2023-05-05T11:02:58.777Z,3.71
2023-05-05T11:03:58.881Z,3.21
2023-05-05T11:04:58.867Z,2.94
2023-05-05T11:05:58.887Z,3.15
2023-05-05T11:06:58.927Z,3.98
2023-05-05T11:07:59.019Z,3.66
2023-05-05T11:08:59.019Z,3.21
2023-05-05T11:09:59.007Z,4.03
2023-05-05T11:10:59.052Z,4.11
2023-05-05T11:11:59.139Z,3.36
2023-05-05T11:12:59.264Z,3.84
2023-05-05T11:13:59.788Z,3.97
2023-05-05T11:14:59.244Z,3.17
2023-05-05T11:15:59.248Z,4.02
2023-05-05T11:16:59.353Z,3.68
2023-05-05T11:17:59.426Z,3.73
2023-05-05T11:19:00.064Z,3.92
2023-05-05T11:19:59.474Z,3.42
2023-05-05T11:20:59.488Z,4.47
2023-05-05T11:21:59.534Z,3.81
2023-05-05T11:22:59.545Z,2.95
2023-05-05T11:23:59.634Z,4.51
2023-05-05T11:24:59.640Z,3.56
2023-05-05T11:25:59.634Z,3.02
2023-05-05T11:26:59.655Z,3.87
2023-05-05T11:27:59.654Z,3.49
2023-05-05T11:28:59.981Z,3.37
2023-05-05T11:29:59.707Z,3.36
2023-05-05T11:30:59.942Z,3.12
2023-05-05T11:31:59.967Z,3.11
2023-05-05T11:32:59.895Z,3.22
2023-05-05T11:33:59.786Z,3.14
2023-05-05T11:35:00.041Z,3.63
2023-05-05T11:36:00.027Z,3.63
2023-05-05T11:37:00.031Z,2.79
2023-05-05T11:37:59.911Z,3.51
2023-05-05T11:38:59.929Z,2.61
2023-05-05T11:40:00.058Z,3.31
2023-05-05T11:40:59.931Z,3.60
2023-05-05T11:41:59.949Z,3.52
2023-05-05T11:42:59.951Z,3.38
2023-05-05T11:44:00.007Z,3.34
2023-05-05T11:44:59.963Z,3.01
2023-05-05T11:46:00.159Z,3.19
2023-05-05T11:47:00.092Z,2.64
2023-05-05T11:48:00.250Z,3.01
2023-05-05T11:49:00.221Z,2.59
2023-05-05T11:50:00.493Z,2.42
2023-05-05T11:51:00.327Z,2.69
2023-05-05T11:52:00.388Z,2.84
2023-05-05T11:53:00.434Z,2.85
2023-05-05T11:54:00.437Z,3.48
2023-05-05T11:55:00.538Z,2.53
2023-05-05T11:56:00.501Z,2.84
2023-05-05T11:57:00.585Z,3.20
2023-05-05T11:58:00.668Z,3.11
2023-05-05T11:59:00.670Z,2.64
2023-05-05T12:00:00.739Z,2.56
2023-05-05T12:01:00.789Z,2.94
2023-05-05T12:02:00.799Z,3.41
2023-05-05T12:03:00.996Z,3.05
2023-05-05T12:04:01.098Z,2.76
2023-05-05T12:05:01.009Z,2.83
2023-05-05T12:06:00.929Z,3.12
2023-05-05T12:07:01.009Z,2.73
2023-05-05T12:08:00.949Z,3.62
2023-05-05T12:09:00.935Z,2.96
2023-05-05T12:10:01.078Z,2.87
2023-05-05T12:11:01.072Z,2.88
2023-05-05T12:12:01.107Z,2.72
2023-05-05T12:13:01.223Z,3.23
2023-05-05T12:14:01.205Z,2.91
2023-05-05T12:15:01.278Z,3.02
2023-05-05T12:16:01.269Z,3.07
2023-05-05T12:17:01.246Z,2.73
2023-05-05T12:18:03.019Z,2.71
2023-05-05T12:19:01.374Z,2.76
2023-05-05T12:20:01.388Z,2.97
2023-05-05T12:21:01.457Z,2.21
2023-05-05T12:22:01.467Z,2.71
2023-05-05T12:23:01.494Z,2.11
2023-05-05T12:24:01.474Z,2.15
2023-05-05T12:25:01.538Z,2.29
2023-05-05T12:26:01.516Z,1.95
2023-05-05T12:27:01.589Z,2.62
2023-05-05T12:28:01.617Z,2.39
2023-05-05T12:29:01.613Z,2.76
2023-05-05T12:30:01.658Z,2.68
2023-05-05T12:31:01.772Z,2.47
2023-05-05T12:32:01.807Z,2.58
2023-05-05T12:33:01.880Z,2.32
2023-05-05T12:34:01.855Z,2.16
2023-05-05T12:35:01.936Z,2.40
2023-05-05T12:36:01.955Z,2.29
2023-05-05T12:37:01.986Z,2.82
2023-05-05T12:38:02.003Z,2.29
2023-05-05T12:39:02.174Z,2.38
2023-05-05T12:40:02.123Z,2.57
2023-05-05T12:41:02.089Z,2.63
2023-05-05T12:42:02.132Z,2.04
2023-05-05T12:43:02.178Z,2.24
2023-05-05T12:44:02.247Z,2.63
2023-05-05T12:45:02.333Z,2.23
2023-05-05T12:46:02.415Z,2.39
2023-05-05T12:47:02.381Z,2.57
2023-05-05T12:48:02.518Z,2.00
2023-05-05T12:49:02.449Z,2.16
2023-05-05T12:50:02.516Z,2.14
2023-05-05T12:51:02.583Z,2.37
2023-05-05T12:52:02.576Z,2.22
2023-05-05T12:53:02.605Z,2.09
2023-05-05T12:54:02.597Z,2.13
2023-05-05T12:55:02.698Z,2.43
2023-05-05T12:56:02.659Z,2.34
2023-05-05T12:57:02.720Z,2.49
2023-05-05T12:58:02.808Z,2.32
2023-05-05T12:59:02.832Z,2.69
2023-05-05T13:00:02.869Z,2.48
2023-05-05T13:01:03.012Z,2.39
2023-05-05T13:02:02.985Z,2.36
2023-05-05T13:03:03.046Z,2.39
2023-05-05T13:04:02.990Z,2.42
2023-05-05T13:05:03.097Z,3.04
2023-05-05T13:06:03.141Z,2.24
2023-05-05T13:07:03.121Z,1.94
2023-05-05T13:08:03.204Z,2.73
2023-05-05T13:09:03.226Z,2.19
2023-05-05T13:10:03.217Z,3.33
2023-05-05T13:11:03.239Z,2.89
2023-05-05T13:12:03.282Z,2.90
2023-05-05T13:13:03.900Z,2.62
2023-05-05T13:14:03.307Z,2.90
2023-05-05T13:15:03.375Z,2.48
2023-05-05T13:16:03.491Z,2.75
2023-05-05T13:17:03.503Z,2.62
2023-05-05T13:18:03.519Z,2.48
2023-05-05T13:19:03.547Z,2.49
2023-05-05T13:20:03.606Z,2.35
2023-05-05T13:21:03.637Z,2.69